Time;durP1;ratioP1;P1;durP2;ratioP2;P2;SDS_P1;SDS_P2;PMS_P1;PMS_P2;Temp;Humidity;BMP_temperature;BMP_pressure;BME280_temperature;BME280_humidity;BME280_pressure;Samples;Min_cycle;Max_cycle;Signal;HPM_P1;HPM_P2
2022/12/03 00:01:15;;;;;;;3.20;3.00;;;20.50;53.00;;;;;;5131917;27;43465;-57
2022/12/03 00:03:42;;;;;;;3.90;3.40;;;20.50;53.10;;;;;;5109628;27;43791;-57
2022/12/03 00:06:10;;;;;;;3.08;2.88;;;20.50;53.10;;;;;;5103077;27;43460;-57
2022/12/03 00:08:37;;;;;;;3.58;3.25;;;20.50;53.00;;;;;;5117589;27;43651;-57
2022/12/03 00:11:06;;;;;;;3.50;3.20;;;20.50;53.60;;;;;;5113085;27;43678;-57
2022/12/03 00:13:33;;;;;;;3.38;3.08;;;20.50;53.00;;;;;;5103302;27;43974;-58
2022/12/03 00:16:01;;;;;;;3.25;3.00;;;20.50;53.10;;;;;;5105984;27;43987;-58
2022/12/03 00:18:28;;;;;;;3.03;2.83;;;20.50;53.10;;;;;;5101519;27;43534;-57
2022/12/03 00:20:56;;;;;;;2.83;2.63;;;20.50;53.00;;;;;;5103485;27;43524;-57
2022/12/03 00:23:23;;;;;;;2.72;2.53;;;20.50;53.00;;;;;;5102084;27;44040;-57
2022/12/03 00:25:51;;;;;;;3.20;2.90;;;20.50;53.00;;;;;;5118008;27;45164;-57
2022/12/03 00:28:18;;;;;;;2.90;2.70;;;20.50;53.00;;;;;;5107463;27;43421;-57
2022/12/03 00:30:46;;;;;;;2.90;2.70;;;20.50;53.70;;;;;;5112253;27;43963;-57
2022/12/03 00:33:14;;;;;;;3.10;2.83;;;20.40;53.00;;;;;;5114419;27;43934;-57
2022/12/03 00:35:41;;;;;;;2.70;2.50;;;20.40;53.10;;;;;;5106065;27;43426;-57
2022/12/03 00:38:09;;;;;;;2.88;2.67;;;20.40;53.10;;;;;;5105060;27;43468;-57
2022/12/03 00:40:36;;;;;;;3.00;2.80;;;20.40;53.00;;;;;;5113724;27;43436;-57
2022/12/03 00:43:04;;;;;;;3.00;2.80;;;20.40;53.00;;;;;;5102876;27;45049;-57
2022/12/03 00:45:31;;;;;;;2.58;2.38;;;20.40;52.90;;;;;;5102441;27;43497;-57
2022/12/03 00:47:59;;;;;;;2.63;2.42;;;20.40;53.00;;;;;;5103620;27;43442;-57
2022/12/03 00:50:26;;;;;;;2.97;2.78;;;20.30;53.10;;;;;;5109783;27;43438;-57
2022/12/03 00:52:54;;;;;;;2.70;2.50;;;20.30;53.10;;;;;;5112227;27;43960;-57
2022/12/03 00:55:21;;;;;;;2.70;2.50;;;20.30;53.10;;;;;;5106243;27;43464;-57
2022/12/03 00:57:49;;;;;;;3.05;2.85;;;20.30;53.10;;;;;;5106118;27;43416;-57
2022/12/03 01:00:16;;;;;;;2.53;2.33;;;20.30;53.10;;;;;;5106599;27;43539;-58
2022/12/03 01:02:44;;;;;;;2.38;2.17;;;20.30;53.00;;;;;;5112484;27;44649;-57
2022/12/03 01:05:11;;;;;;;2.70;2.50;;;20.20;53.10;;;;;;5105924;27;43774;-57
2022/12/03 01:07:39;;;;;;;3.03;2.72;;;20.20;53.10;;;;;;5105440;27;43446;-57
2022/12/03 01:10:07;;;;;;;2.65;2.45;;;20.20;53.10;;;;;;5105299;27;43615;-57
2022/12/03 01:12:34;;;;;;;2.58;2.38;;;20.20;53.00;;;;;;5118419;27;44994;-57
2022/12/03 01:15:01;;;;;;;2.80;2.45;;;20.20;53.00;;;;;;5120617;27;43521;-57
2022/12/03 01:17:29;;;;;;;2.20;2.10;;;20.20;53.00;;;;;;5105751;27;43414;-59
2022/12/03 01:19:57;;;;;;;2.70;2.50;;;20.20;53.10;;;;;;5105275;27;43574;-57
2022/12/03 01:22:25;;;;;;;2.58;2.38;;;20.20;53.10;;;;;;5110583;27;43779;-57
2022/12/03 01:24:52;;;;;;;2.60;2.40;;;20.20;53.70;;;;;;5108570;27;43926;-57
2022/12/03 01:27:21;;;;;;;2.28;2.08;;;20.10;53.10;;;;;;5104785;27;43389;-57
2022/12/03 01:29:49;;;;;;;2.70;2.50;;;20.10;53.20;;;;;;5105183;27;43461;-57
2022/12/03 01:32:17;;;;;;;2.60;2.40;;;20.10;53.20;;;;;;5131441;27;44698;-57
2022/12/03 01:34:46;;;;;;;2.40;2.30;;;20.10;53.10;;;;;;5144301;27;43767;-57
2022/12/03 01:37:15;;;;;;;2.60;2.40;;;20.10;53.10;;;;;;5145745;27;43377;-57
2022/12/03 01:39:42;;;;;;;2.55;2.38;;;20.10;53.00;;;;;;5144767;27;43492;-57
2022/12/03 01:42:33;;;;;;;2.70;2.50;;;20.10;53.10;;;;;;5114579;27;44722;-57
2022/12/03 01:45:01;;;;;;;2.58;2.38;;;20.20;53.10;;;;;;5114499;27;43858;-57
2022/12/03 01:47:35;;;;;;;2.75;2.55;;;20.10;53.10;;;;;;5145832;27;43410;-57
2022/12/03 01:50:11;;;;;;;2.40;2.20;;;20.10;53.10;;;;;;5144708;27;43562;-58
2022/12/03 01:52:39;;;;;;;2.25;2.15;;;20.10;53.10;;;;;;5144235;27;43815;-57
2022/12/03 01:55:13;;;;;;;2.30;2.20;;;20.10;53.20;;;;;;5144981;27;43676;-57
2022/12/03 01:57:42;;;;;;;2.10;2.00;;;20.10;53.20;;;;;;5145440;27;43381;-57
2022/12/03 02:00:16;;;;;;;2.53;2.40;;;20.00;53.20;;;;;;5143387;27;43474;-57
2022/12/03 02:02:45;;;;;;;2.33;2.20;;;20.00;53.20;;;;;;5117894;27;44693;-57
2022/12/03 02:05:19;;;;;;;2.40;2.17;;;20.00;53.20;;;;;;5106937;27;43694;-57
2022/12/03 02:07:46;;;;;;;2.55;2.33;;;20.00;53.20;;;;;;5110820;27;43462;-57
2022/12/03 02:10:16;;;;;;;2.55;2.35;;;20.00;53.20;;;;;;5104542;27;43496;-57
2022/12/03 02:12:49;;;;;;;2.63;2.42;;;20.00;53.30;;;;;;5104745;27;44721;-57
2022/12/03 02:15:17;;;;;;;2.50;2.30;;;20.00;53.20;;;;;;5108277;27;43384;-57
2022/12/03 02:17:44;;;;;;;2.22;2.10;;;20.00;53.30;;;;;;5104289;27;43345;-57
2022/12/03 02:20:14;;;;;;;2.28;2.10;;;19.90;53.30;;;;;;5104916;27;43450;-57
2022/12/03 02:23:03;;;;;;;2.42;2.22;;;19.90;53.30;;;;;;5104588;27;44055;-58
2022/12/03 02:25:33;;;;;;;2.10;2.00;;;19.90;54.00;;;;;;5104467;27;43473;-57
2022/12/03 02:28:03;;;;;;;2.60;2.40;;;19.80;53.30;;;;;;5105468;27;43431;-57
2022/12/03 02:30:31;;;;;;;2.15;2.05;;;19.80;53.30;;;;;;5103147;27;43470;-57
2022/12/03 02:32:59;;;;;;;2.50;2.30;;;19.80;53.40;;;;;;5104467;27;43870;-57
2022/12/03 02:35:30;;;;;;;2.30;2.20;;;19.80;53.30;;;;;;5104565;27;43973;-57
2022/12/03 02:38:07;;;;;;;2.38;2.20;;;19.80;53.30;;;;;;5114604;27;43458;-57
2022/12/03 02:40:34;;;;;;;2.45;2.33;;;19.80;53.30;;;;;;5104297;27;43383;-57
2022/12/03 02:43:03;;;;;;;2.20;2.10;;;19.80;53.40;;;;;;5104405;27;43736;-57
2022/12/03 02:45:37;;;;;;;2.55;2.35;;;19.80;53.40;;;;;;5103731;27;44107;-58
2022/12/03 02:48:12;;;;;;;2.35;2.17;;;19.80;53.40;;;;;;5108747;27;43308;-57
2022/12/03 02:50:45;;;;;;;2.70;2.50;;;19.80;53.40;;;;;;5113176;27;43454;-58
2022/12/03 02:53:16;;;;;;;2.50;2.30;;;19.80;53.40;;;;;;5102954;27;44044;-57
2022/12/03 02:55:45;;;;;;;2.35;2.25;;;19.80;53.40;;;;;;5104166;27;43492;-57
2022/12/03 02:58:13;;;;;;;2.42;2.33;;;19.80;53.40;;;;;;5103631;27;43428;-58
2022/12/03 03:00:42;;;;;;;2.50;2.30;;;19.70;53.40;;;;;;5108752;27;43466;-57
2022/12/03 03:03:10;;;;;;;2.47;2.28;;;19.70;53.40;;;;;;5107594;27;44865;-57
2022/12/03 03:05:39;;;;;;;3.13;2.40;;;19.70;53.40;;;;;;5102886;27;43989;-57
2022/12/03 03:08:08;;;;;;;2.63;2.42;;;19.70;53.40;;;;;;5103998;27;43704;-57
2022/12/03 03:10:37;;;;;;;2.70;2.50;;;19.70;53.40;;;;;;5102919;27;44091;-57
2022/12/03 03:13:11;;;;;;;2.70;2.50;;;19.70;53.40;;;;;;5103728;27;43812;-57
2022/12/03 03:15:40;;;;;;;2.50;2.30;;;19.70;53.40;;;;;;5114531;27;44287;-57
2022/12/03 03:18:09;;;;;;;2.90;2.70;;;19.70;53.40;;;;;;5103718;27;43440;-57
2022/12/03 03:20:38;;;;;;;2.50;2.30;;;19.60;53.40;;;;;;5116516;27;43450;-57
2022/12/03 03:23:19;;;;;;;2.50;2.30;;;19.60;53.50;;;;;;5104332;27;44678;-58
2022/12/03 03:25:57;;;;;;;2.60;2.40;;;19.60;53.50;;;;;;5103797;27;43864;-58
2022/12/03 03:28:25;;;;;;;2.50;2.30;;;19.60;53.60;;;;;;5103193;27;43364;-57
2022/12/03 03:30:53;;;;;;;2.45;2.25;;;19.60;53.60;;;;;;5104064;27;43552;-57
2022/12/03 03:33:21;;;;;;;2.70;2.50;;;19.60;53.50;;;;;;5115130;27;44067;-57
2022/12/03 03:35:48;;;;;;;2.83;2.63;;;19.60;53.50;;;;;;5143732;27;43355;-57
2022/12/03 03:38:18;;;;;;;2.60;2.40;;;19.50;53.50;;;;;;5143618;27;43402;-58
2022/12/03 03:40:48;;;;;;;2.55;2.40;;;19.50;53.50;;;;;;5142702;27;43508;-58
2022/12/03 03:43:16;;;;;;;3.10;2.85;;;19.50;53.50;;;;;;5143026;27;45241;-57
2022/12/03 03:45:44;;;;;;;2.78;2.58;;;19.50;53.50;;;;;;5143557;27;43564;-57
2022/12/03 03:48:12;;;;;;;2.60;2.40;;;19.60;53.50;;;;;;5143007;27;44045;-57
2022/12/03 03:50:42;;;;;;;2.40;2.30;;;19.50;53.50;;;;;;5142526;27;43519;-58
2022/12/03 03:53:11;;;;;;;2.70;2.50;;;19.60;53.50;;;;;;5138892;27;43836;-57
2022/12/03 03:55:40;;;;;;;2.70;2.50;;;19.50;53.40;;;;;;5142582;27;43923;-58
2022/12/03 03:58:07;;;;;;;2.60;2.40;;;19.50;53.50;;;;;;5143589;27;43722;-57
2022/12/03 04:00:35;;;;;;;2.70;2.50;;;19.50;53.60;;;;;;5140640;27;43630;-57
2022/12/03 04:03:04;;;;;;;2.58;2.38;;;19.50;53.60;;;;;;5112514;27;43811;-57
2022/12/03 04:05:32;;;;;;;2.78;2.53;;;19.50;53.60;;;;;;5113492;27;43685;-57
2022/12/03 04:07:59;;;;;;;2.83;2.63;;;19.50;53.50;;;;;;5139094;27;43439;-57
2022/12/03 04:13:13;;;;;;;2.88;2.67;;;19.50;53.50;;;;;;5142890;27;43806;-57
2022/12/03 04:15:40;;;;;;;2.70;2.50;;;19.50;53.50;;;;;;5138350;27;43905;-58
2022/12/03 04:22:38;;;;;;;3.10;2.83;;;19.50;53.50;;;;;;5143305;27;43427;-58
2022/12/03 04:23:43;;;;;;;3.30;3.00;;;19.50;53.60;;;;;;5145467;27;44998;-57
2022/12/03 04:28:57;;;;;;;3.47;2.80;;;19.40;53.60;;;;;;5147192;27;44000;-57
2022/12/03 04:36:57;;;;;;;2.83;2.63;;;19.40;53.60;;;;;;5114726;27;43413;-57
2022/12/03 04:39:24;;;;;;;2.67;2.47;;;19.40;53.70;;;;;;5106108;27;43446;-57
2022/12/03 04:41:52;;;;;;;3.08;2.88;;;19.40;53.70;;;;;;5113834;27;43556;-57
2022/12/03 04:44:37;;;;;;;2.78;2.58;;;19.40;53.70;;;;;;5105897;27;44035;-57
2022/12/03 04:47:05;;;;;;;3.20;3.00;;;19.40;53.70;;;;;;5106809;27;43424;-57
2022/12/03 04:49:33;;;;;;;3.13;2.92;;;19.40;53.70;;;;;;5106602;27;43440;-58
2022/12/03 04:52:00;;;;;;;2.90;2.70;;;19.40;53.70;;;;;;5105682;27;43518;-57
2022/12/03 04:54:28;;;;;;;2.92;2.72;;;19.30;53.60;;;;;;5106073;27;44076;-57
2022/12/03 04:56:56;;;;;;;3.00;2.80;;;19.30;53.60;;;;;;5120910;27;43998;-57
2022/12/03 04:59:23;;;;;;;2.97;2.78;;;19.30;53.60;;;;;;5107552;27;43411;-57
2022/12/03 05:01:51;;;;;;;3.70;3.40;;;19.30;53.70;;;;;;5114302;27;43373;-57
2022/12/03 05:04:18;;;;;;;2.92;2.72;;;19.30;54.30;;;;;;5106127;27;44110;-58
2022/12/03 05:06:46;;;;;;;3.00;2.80;;;19.30;53.70;;;;;;5105757;27;43525;-57
2022/12/03 05:09:13;;;;;;;3.35;3.08;;;19.30;53.70;;;;;;5108069;27;43387;-58
2022/12/03 05:11:41;;;;;;;3.08;2.80;;;19.30;53.80;;;;;;5105564;27;43489;-57
2022/12/03 05:14:10;;;;;;;3.05;2.85;;;19.20;53.70;;;;;;5111138;27;45006;-58
2022/12/03 05:16:38;;;;;;;3.00;2.80;;;19.30;53.80;;;;;;5111452;27;43694;-57
2022/12/03 05:19:07;;;;;;;3.30;3.00;;;19.20;53.70;;;;;;5106052;27;43419;-57
2022/12/03 05:21:35;;;;;;;3.45;3.15;;;19.20;53.80;;;;;;5105462;27;43422;-57
2022/12/03 05:24:03;;;;;;;3.05;2.85;;;19.20;53.80;;;;;;5105448;27;45189;-57
2022/12/03 05:26:30;;;;;;;3.33;3.03;;;19.20;53.80;;;;;;5105359;27;43697;-57
2022/12/03 05:28:58;;;;;;;2.88;2.67;;;19.20;53.80;;;;;;5106469;27;43811;-57
2022/12/03 05:31:25;;;;;;;3.03;2.83;;;19.20;53.80;;;;;;5105242;27;43509;-57
2022/12/03 05:33:53;;;;;;;3.08;2.88;;;19.20;53.80;;;;;;5126116;27;45140;-57
2022/12/03 05:36:21;;;;;;;3.30;3.00;;;19.20;53.90;;;;;;5145698;27;43930;-57
2022/12/03 05:38:48;;;;;;;3.15;2.95;;;19.10;53.80;;;;;;5144551;27;43455;-58
2022/12/03 05:44:01;;;;;;;2.92;2.72;;;19.20;53.90;;;;;;5145700;27;44976;-57
2022/12/03 05:46:29;;;;;;;2.88;2.67;;;19.10;53.80;;;;;;5144892;27;43776;-57
2022/12/03 05:48:56;;;;;;;2.90;2.70;;;19.10;53.80;;;;;;5145123;27;43532;-57
2022/12/03 05:51:24;;;;;;;2.97;2.78;;;19.10;53.80;;;;;;5141357;27;43495;-58
2022/12/03 05:53:51;;;;;;;3.20;2.90;;;19.10;53.80;;;;;;5144834;27;43789;-57
2022/12/03 05:56:18;;;;;;;3.50;3.20;;;19.10;53.80;;;;;;5144496;27;43486;-57
2022/12/03 05:58:46;;;;;;;3.10;2.90;;;19.10;53.80;;;;;;5145418;27;43360;-57
2022/12/03 06:01:13;;;;;;;3.30;3.03;;;19.10;53.80;;;;;;5132873;27;43524;-58
2022/12/03 06:03:41;;;;;;;3.13;2.90;;;19.00;53.80;;;;;;5119088;27;44958;-57
2022/12/03 06:06:09;;;;;;;3.22;2.92;;;19.10;53.80;;;;;;5130338;27;44133;-57
2022/12/03 06:08:36;;;;;;;3.05;2.85;;;19.00;53.80;;;;;;5127877;27;43393;-57
2022/12/03 06:11:03;;;;;;;3.10;2.83;;;19.10;53.80;;;;;;5107663;27;43438;-58
2022/12/03 06:13:31;;;;;;;3.05;2.85;;;19.00;53.80;;;;;;5130228;27;43782;-57
2022/12/03 06:15:58;;;;;;;3.40;3.10;;;19.10;53.80;;;;;;5127292;27;43403;-58
2022/12/03 06:18:27;;;;;;;2.63;2.42;;;19.10;53.80;;;;;;5119743;27;43493;-58
2022/12/03 06:20:54;;;;;;;3.67;3.38;;;19.10;53.80;;;;;;5124287;27;43560;-58
2022/12/03 06:23:22;;;;;;;3.42;3.13;;;19.10;53.70;;;;;;5131705;27;44990;-58
2022/12/03 06:25:49;;;;;;;3.00;2.80;;;19.20;53.70;;;;;;5125945;27;43640;-58
2022/12/03 06:28:17;;;;;;;3.10;2.90;;;19.20;53.70;;;;;;5126107;27;43428;-57
2022/12/03 06:30:44;;;;;;;2.90;2.70;;;19.20;53.60;;;;;;5127433;27;43521;-57
2022/12/03 06:33:12;;;;;;;3.35;3.15;;;19.20;53.70;;;;;;5125329;27;44968;-58
2022/12/03 06:35:39;;;;;;;3.30;3.08;;;19.20;53.70;;;;;;5123347;27;43452;-57
2022/12/03 06:38:07;;;;;;;3.53;2.90;;;19.10;53.70;;;;;;5118579;27;43497;-57
2022/12/03 06:40:34;;;;;;;3.20;3.00;;;19.10;53.80;;;;;;5121807;27;43639;-58
2022/12/03 06:43:01;;;;;;;3.30;2.97;;;19.00;53.70;;;;;;5130163;27;44043;-57
2022/12/03 06:45:29;;;;;;;3.40;3.10;;;19.00;53.70;;;;;;5123942;27;44041;-57
2022/12/03 06:47:56;;;;;;;3.30;3.10;;;19.00;53.70;;;;;;5124012;27;43401;-58
2022/12/03 06:50:24;;;;;;;3.22;3.03;;;19.00;53.70;;;;;;5125797;27;43438;-58
2022/12/03 06:52:51;;;;;;;3.50;3.30;;;19.00;53.70;;;;;;5123927;27;44025;-57
2022/12/03 06:55:19;;;;;;;3.42;3.13;;;19.10;53.60;;;;;;5130473;27;43367;-57
2022/12/03 06:57:46;;;;;;;2.95;2.75;;;19.10;53.70;;;;;;5122698;27;43360;-57
2022/12/03 07:00:14;;;;;;;3.92;2.85;;;19.00;53.50;;;;;;5119596;27;43583;-58
2022/12/03 07:02:43;;;;;;;2.85;2.65;;;19.00;53.70;;;;;;5117434;27;44666;-58
2022/12/03 07:05:12;;;;;;;;;;;19.00;53.80;;;;;;5124804;27;43981;-57
2022/12/03 07:07:40;;;;;;;3.35;3.05;;;18.90;53.70;;;;;;5127052;27;43615;-58
2022/12/03 07:10:08;;;;;;;3.03;2.80;;;18.90;53.80;;;;;;5125192;27;43534;-58
2022/12/03 07:12:36;;;;;;;3.13;2.90;;;19.00;53.80;;;;;;5103853;27;44716;-58
2022/12/03 07:15:04;;;;;;;3.13;2.92;;;18.90;53.70;;;;;;5118523;27;43506;-58
2022/12/03 07:17:32;;;;;;;3.22;2.97;;;19.00;53.80;;;;;;5115459;27;43443;-57
2022/12/03 07:19:59;;;;;;;3.10;2.90;;;19.00;53.80;;;;;;5114503;27;43568;-58
2022/12/03 07:22:27;;;;;;;3.15;2.85;;;19.00;53.80;;;;;;5122541;27;44713;-57
2022/12/03 07:24:54;;;;;;;3.30;3.00;;;18.90;53.70;;;;;;5119013;27;44581;-57
2022/12/03 07:27:22;;;;;;;3.17;2.88;;;18.90;53.70;;;;;;5111103;27;43492;-58
2022/12/03 07:29:50;;;;;;;3.10;2.80;;;18.90;53.70;;;;;;5119570;27;44001;-58
2022/12/03 07:32:17;;;;;;;3.25;2.95;;;18.90;53.80;;;;;;5121386;27;43923;-58
2022/12/03 07:34:45;;;;;;;3.08;2.88;;;18.90;53.80;;;;;;5102992;27;43575;-58
2022/12/03 07:37:12;;;;;;;2.75;2.55;;;18.90;53.90;;;;;;5119711;27;43451;-58
2022/12/03 07:39:44;;;;;;;3.47;3.17;;;18.90;53.80;;;;;;5120128;27;43543;-58
2022/12/03 07:42:12;;;;;;;3.22;3.00;;;18.90;53.70;;;;;;5102922;27;43910;-58
2022/12/03 07:44:39;;;;;;;3.10;2.90;;;18.90;53.90;;;;;;5103114;27;43786;-58
2022/12/03 07:47:07;;;;;;;3.30;3.10;;;18.90;53.90;;;;;;5103951;27;43452;-58
2022/12/03 07:49:34;;;;;;;3.45;3.08;;;18.80;53.90;;;;;;5111962;27;43612;-58
2022/12/03 07:52:03;;;;;;;3.22;3.03;;;18.80;53.80;;;;;;5102920;27;45008;-57
2022/12/03 07:54:30;;;;;;;3.40;3.10;;;18.80;53.80;;;;;;5101966;27;43712;-56
2022/12/03 07:56:58;;;;;;;3.63;3.33;;;18.90;53.80;;;;;;5114620;27;43433;-58
2022/12/03 07:59:28;;;;;;;3.20;2.90;;;18.90;53.80;;;;;;5101959;27;43379;-57
2022/12/03 08:01:56;;;;;;;5.05;3.20;;;18.90;53.90;;;;;;5102286;27;43778;-57
2022/12/03 08:04:23;;;;;;;3.92;3.28;;;18.80;53.90;;;;;;5126993;27;43647;-56
2022/12/03 08:07:06;;;;;;;5.72;3.25;;;18.80;53.70;;;;;;5096397;27;43420;-58
2022/12/03 08:09:33;;;;;;;3.40;3.17;;;18.80;53.90;;;;;;5134362;27;43635;-57
2022/12/03 08:12:10;;;;;;;3.30;3.00;;;18.90;53.90;;;;;;5124756;27;43869;-57
2022/12/03 08:14:37;;;;;;;3.83;3.45;;;18.90;53.70;;;;;;5118441;27;43718;-57
2022/12/03 08:17:11;;;;;;;3.50;3.20;;;19.00;53.70;;;;;;5104406;27;43380;-56
2022/12/03 08:19:46;;;;;;;4.07;3.35;;;19.10;53.40;;;;;;5125835;27;43420;-59
2022/12/03 08:22:14;;;;;;;6.28;3.15;;;19.20;54.60;;;;;;5110340;27;44049;-58
2022/12/03 08:24:42;;;;;;;4.22;3.65;;;19.30;53.60;;;;;;5122002;27;44293;-57
2022/12/03 08:27:18;;;;;;;4.70;3.33;;;19.40;53.20;;;;;;5117328;27;43461;-57
2022/12/03 08:29:46;;;;;;;3.40;3.10;;;19.40;53.20;;;;;;5125810;27;43496;-57
2022/12/03 08:32:13;;;;;;;3.95;3.65;;;19.50;53.20;;;;;;5127235;27;45177;-57
2022/12/03 08:34:43;;;;;;;4.28;3.75;;;19.60;52.80;;;;;;5125597;27;43898;-56
2022/12/03 08:37:16;;;;;;;3.50;3.17;;;19.80;52.80;;;;;;5127410;27;43547;-57
2022/12/03 08:39:47;;;;;;;3.67;3.38;;;19.90;53.00;;;;;;5129322;27;43426;-58
2022/12/03 08:42:40;;;;;;;4.53;3.58;;;20.00;52.60;;;;;;5126835;27;44690;-57
2022/12/03 08:45:27;;;;;;;3.38;3.08;;;20.10;52.60;;;;;;5120291;27;43963;-57
2022/12/03 08:47:56;;;;;;;3.38;3.10;;;20.20;52.70;;;;;;5119133;27;43444;-57
2022/12/03 08:50:29;;;;;;;3.72;3.28;;;20.30;52.30;;;;;;5123780;27;43568;-58
2022/12/03 08:53:17;;;;;;;4.43;3.53;;;20.40;52.30;;;;;;5122832;27;44723;-58
2022/12/03 08:55:47;;;;;;;3.53;3.22;;;20.60;52.20;;;;;;5124349;27;43456;-57
2022/12/03 08:58:30;;;;;;;4.00;3.38;;;20.70;52.00;;;;;;5125207;27;43409;-57
2022/12/03 09:01:14;;;;;;;3.42;3.13;;;20.90;51.90;;;;;;5120032;27;43539;-58
2022/12/03 09:03:53;;;;;;;3.42;3.13;;;21.10;51.80;;;;;;5122910;27;43851;-58
2022/12/03 09:06:21;;;;;;;3.90;3.60;;;21.20;51.50;;;;;;5118796;27;44028;-57
2022/12/03 09:08:48;;;;;;;4.35;3.90;;;21.20;51.10;;;;;;5133138;27;43413;-58
2022/12/03 09:11:16;;;;;;;3.88;3.58;;;21.30;51.20;;;;;;5127691;27;43490;-57
2022/12/03 09:13:43;;;;;;;4.13;3.70;;;21.40;51.40;;;;;;5128357;27;45127;-57
2022/12/03 09:16:11;;;;;;;4.93;3.80;;;21.60;51.00;;;;;;5128905;27;43498;-58
2022/12/03 09:18:38;;;;;;;4.80;4.00;;;21.80;51.00;;;;;;5125115;27;43497;-58
2022/12/03 09:21:06;;;;;;;5.18;4.10;;;21.90;51.00;;;;;;5124256;27;43568;-57
2022/12/03 09:23:33;;;;;;;7.50;4.18;;;22.20;50.70;;;;;;5133617;27;44969;-58
2022/12/03 09:26:00;;;;;;;4.10;3.70;;;22.40;50.40;;;;;;5122363;27;43988;-58
2022/12/03 09:28:28;;;;;;;5.60;4.15;;;22.60;50.30;;;;;;5123842;27;43519;-57
2022/12/03 09:30:55;;;;;;;4.30;3.90;;;22.80;49.70;;;;;;5128322;27;43485;-58
2022/12/03 09:33:23;;;;;;;4.68;4.07;;;22.90;49.60;;;;;;5126213;27;44648;-58
2022/12/03 09:35:50;;;;;;;4.82;4.20;;;23.00;49.60;;;;;;5129515;27;43433;-58
2022/12/03 09:38:18;;;;;;;4.40;3.97;;;23.10;49.40;;;;;;5131637;27;43486;-58
2022/12/03 09:40:45;;;;;;;4.45;4.05;;;23.10;49.50;;;;;;5124263;27;43469;-58
2022/12/03 09:43:12;;;;;;;4.90;3.92;;;23.10;49.60;;;;;;5129172;27;44612;-58
2022/12/03 09:45:40;;;;;;;3.97;3.65;;;23.20;49.30;;;;;;5117740;27;43938;-58
2022/12/03 09:48:07;;;;;;;3.78;3.47;;;23.20;49.40;;;;;;5123273;27;43428;-58
2022/12/03 09:50:39;;;;;;;4.63;4.22;;;23.20;49.40;;;;;;5122924;27;43623;-58
2022/12/03 09:53:11;;;;;;;3.97;3.67;;;23.30;49.40;;;;;;5119416;27;43874;-58
2022/12/03 09:55:40;;;;;;;4.22;3.83;;;23.30;49.40;;;;;;5125018;27;44105;-58
2022/12/03 09:58:16;;;;;;;4.05;3.75;;;23.40;49.40;;;;;;5127493;27;43367;-58
2022/12/03 10:00:49;;;;;;;4.35;3.95;;;23.40;49.00;;;;;;5128453;27;43528;-58
2022/12/03 10:03:20;;;;;;;4.03;3.72;;;23.40;49.00;;;;;;5120536;27;44046;-58
2022/12/03 10:05:55;;;;;;;4.13;3.75;;;23.50;49.80;;;;;;5116017;27;43382;-58
2022/12/03 10:08:24;;;;;;;4.10;3.80;;;23.50;49.10;;;;;;5127599;27;43436;-58
2022/12/03 10:10:58;;;;;;;4.25;3.83;;;23.60;49.00;;;;;;5139853;27;43412;-58
2022/12/03 10:13:29;;;;;;;4.13;3.72;;;23.60;48.20;;;;;;5121932;27;44911;-54
2022/12/03 10:15:59;;;;;;;6.63;4.28;;;23.60;48.50;;;;;;5110255;27;45154;-57
2022/12/03 10:18:30;;;;;;;4.18;3.78;;;23.60;48.30;;;;;;5116016;27;43398;-57
2022/12/03 10:21:02;;;;;;;4.30;3.80;;;23.60;48.20;;;;;;5138758;27;43524;-57
2022/12/03 10:23:30;;;;;;;4.40;4.00;;;23.50;48.50;;;;;;5112221;27;44034;-57
2022/12/03 10:26:02;;;;;;;3.80;3.50;;;23.50;48.40;;;;;;5126256;27;43441;-57
2022/12/03 10:28:38;;;;;;;4.40;3.72;;;23.50;48.70;;;;;;5104869;27;43532;-56
2022/12/03 10:31:10;;;;;;;4.15;3.75;;;23.40;48.40;;;;;;5129560;27;43488;-56
2022/12/03 10:33:41;;;;;;;4.97;3.65;;;23.30;48.50;;;;;;5103871;27;44009;-57
2022/12/03 10:36:22;;;;;;;4.00;3.70;;;23.20;48.70;;;;;;5103515;27;43480;-57
2022/12/03 10:39:09;;;;;;;4.40;3.78;;;23.10;48.70;;;;;;5103563;27;43452;-56
2022/12/03 10:41:39;;;;;;;3.80;3.50;;;23.00;48.60;;;;;;5104991;27;43560;-56
2022/12/03 10:44:21;;;;;;;4.05;3.75;;;22.90;49.00;;;;;;5103282;27;44716;-55
2022/12/03 10:47:10;;;;;;;4.40;4.00;;;22.90;48.90;;;;;;5111313;27;43538;-55
2022/12/03 10:49:39;;;;;;;4.40;4.00;;;22.80;49.00;;;;;;5106277;27;43465;-56
2022/12/03 10:52:20;;;;;;;4.63;4.13;;;22.70;49.00;;;;;;5119699;27;43383;-56
2022/12/03 10:54:52;;;;;;;6.10;4.85;;;22.60;49.10;;;;;;5103685;27;43812;-56
2022/12/03 10:57:20;;;;;;;5.10;4.60;;;22.50;49.10;;;;;;5105449;27;43973;-55
2022/12/03 10:59:51;;;;;;;6.47;5.05;;;22.40;49.30;;;;;;5114721;27;43584;-54
2022/12/03 11:02:22;;;;;;;6.45;4.90;;;22.30;49.40;;;;;;5122128;27;43444;-56
2022/12/03 11:04:49;;;;;;;;;;;22.30;49.50;;;;;;5114789;27;43921;-55
2022/12/03 11:07:20;;;;;;;6.70;5.38;;;22.20;49.60;;;;;;5120493;27;43473;-55
2022/12/03 11:09:51;;;;;;;5.80;4.95;;;22.10;49.70;;;;;;5119762;27;43526;-56
2022/12/03 11:12:22;;;;;;;6.20;5.53;;;22.10;49.90;;;;;;5115925;27;43560;-56
2022/12/03 11:14:50;;;;;;;7.20;5.18;;;22.00;49.80;;;;;;5115654;27;43797;-56
2022/12/03 11:17:40;;;;;;;7.93;5.38;;;22.00;49.80;;;;;;5116422;27;43413;-56
2022/12/03 11:20:32;;;;;;;6.15;5.15;;;22.00;50.00;;;;;;5105381;27;43574;-56
2022/12/03 11:22:59;;;;;;;;;;;21.90;50.00;;;;;;5087154;27;43600;-56
2022/12/03 11:25:27;;;;;;;6.47;5.20;;;21.90;50.10;;;;;;5108834;27;44049;-56
2022/12/03 11:28:13;;;;;;;6.00;5.25;;;21.80;50.10;;;;;;5112967;27;43437;-56
2022/12/03 11:30:50;;;;;;;7.72;5.45;;;21.80;50.20;;;;;;5116972;27;43453;-55
2022/12/03 11:33:26;;;;;;;6.90;5.80;;;21.70;50.30;;;;;;5119825;27;43599;-56
2022/12/03 11:36:04;;;;;;;6.63;5.78;;;21.70;50.30;;;;;;5116200;27;44030;-56
2022/12/03 11:38:40;;;;;;;6.18;5.57;;;21.60;50.20;;;;;;5109052;27;43537;-56
2022/12/03 11:41:12;;;;;;;8.85;6.63;;;21.60;50.40;;;;;;5103133;27;43485;-57
2022/12/03 11:43:51;;;;;;;6.53;5.68;;;21.50;50.30;;;;;;5103621;27;43425;-55
2022/12/03 11:46:20;;;;;;;7.57;6.55;;;21.50;50.40;;;;;;5102792;27;44135;-55
2022/12/03 11:48:52;;;;;;;8.55;6.47;;;21.40;50.00;;;;;;5103426;27;43520;-57
2022/12/03 11:51:23;;;;;;;8.43;6.75;;;21.40;50.00;;;;;;5111891;27;43371;-55
2022/12/03 11:53:53;;;;;;;8.15;6.10;;;21.30;50.00;;;;;;5105263;27;43579;-55
2022/12/03 11:56:26;;;;;;;8.32;6.30;;;21.20;50.30;;;;;;5113179;27;44972;-55
2022/12/03 11:58:59;;;;;;;7.13;6.25;;;21.20;50.50;;;;;;5104360;27;43404;-56
2022/12/03 12:01:36;;;;;;;7.10;5.60;;;21.20;50.70;;;;;;5108631;27;43393;-54
2022/12/03 12:04:07;;;;;;;7.43;6.05;;;21.10;50.70;;;;;;5110414;27;43592;-55
2022/12/03 12:06:43;;;;;;;7.25;6.30;;;21.10;50.70;;;;;;5112390;27;45142;-55
2022/12/03 12:09:54;;;;;;;7.82;5.90;;;21.10;50.60;;;;;;5107260;27;43461;-56
2022/12/03 12:12:45;;;;;;;7.60;6.53;;;21.10;50.80;;;;;;5102440;27;43461;-56
2022/12/03 12:15:40;;;;;;;7.00;6.18;;;21.00;51.00;;;;;;5102355;27;43375;-55
2022/12/03 12:18:36;;;;;;;6.55;5.85;;;21.00;50.90;;;;;;5102542;27;44033;-55
2022/12/03 12:21:42;;;;;;;7.07;5.72;;;21.00;51.00;;;;;;5106156;27;43431;-55
2022/12/03 12:24:31;;;;;;;6.38;5.63;;;20.90;50.90;;;;;;5102375;27;43423;-56
2022/12/03 12:27:08;;;;;;;6.18;5.57;;;20.90;51.00;;;;;;5100060;27;43447;-55
2022/12/03 12:29:38;;;;;;;6.28;5.63;;;20.80;50.90;;;;;;5102299;27;44039;-56
2022/12/03 12:32:14;;;;;;;7.30;6.03;;;20.80;51.00;;;;;;5112775;27;43777;-55
2022/12/03 12:34:47;;;;;;;7.20;5.93;;;20.80;51.00;;;;;;5108851;27;43461;-55
2022/12/03 12:38:00;;;;;;;6.57;5.88;;;20.80;51.00;;;;;;5108485;27;43464;-56
2022/12/03 12:40:29;;;;;;;6.88;6.18;;;20.70;51.10;;;;;;5123779;27;44027;-55
2022/12/03 12:43:03;;;;;;;7.25;6.38;;;20.70;51.20;;;;;;5112887;27;43985;-54
2022/12/03 12:45:41;;;;;;;6.53;5.93;;;20.60;51.00;;;;;;5117414;27;43439;-56
2022/12/03 12:48:21;;;;;;;6.75;6.05;;;20.60;51.40;;;;;;5126211;27;43626;-56
2022/12/03 12:50:57;;;;;;;6.28;5.68;;;20.60;51.20;;;;;;5129976;27;44870;-56
2022/12/03 12:53:30;;;;;;;6.35;5.75;;;20.60;51.20;;;;;;5127400;27;43667;-55
2022/12/03 12:56:20;;;;;;;6.55;5.88;;;20.60;51.20;;;;;;5130614;27;43496;-56
2022/12/03 12:58:47;;;;;;;6.15;5.55;;;20.60;51.20;;;;;;5123572;27;43505;-56
2022/12/03 13:01:42;;;;;;;6.32;5.70;;;20.60;51.20;;;;;;5123484;27;44070;-56
2022/12/03 13:04:21;;;;;;;6.05;5.43;;;20.60;51.30;;;;;;5124076;27;43393;-55
2022/12/03 13:06:52;;;;;;;6.18;5.57;;;20.60;51.20;;;;;;5122823;27;43443;-55
2022/12/03 13:09:25;;;;;;;5.82;5.22;;;20.50;51.40;;;;;;5121308;27;43483;-56
2022/12/03 13:11:59;;;;;;;6.30;5.70;;;20.50;51.30;;;;;;5122684;27;43789;-56
2022/12/03 13:14:34;;;;;;;6.07;5.43;;;20.50;51.20;;;;;;5127276;27;43799;-55
2022/12/03 13:17:13;;;;;;;6.10;5.50;;;20.50;51.20;;;;;;5126919;27;43437;-56
2022/12/03 13:19:40;;;;;;;7.05;6.35;;;20.50;51.20;;;;;;5124541;27;43489;-56
2022/12/03 13:22:16;;;;;;;5.93;5.25;;;20.40;51.20;;;;;;5118675;27;44230;-56
2022/12/03 13:24:52;;;;;;;6.40;5.78;;;20.40;51.30;;;;;;5121845;27;43959;-55